createdAt,value
2019-06-08T00:01:54.290Z,25.35
2019-06-08T00:04:22.753Z,21.57
2019-06-08T00:06:50.211Z,26.65
2019-06-08T00:09:20.388Z,22.73
2019-06-08T00:11:46.496Z,20.68
2019-06-08T00:14:15.088Z,22.52
2019-06-08T00:16:42.456Z,25.00
2019-06-08T00:19:09.729Z,27.75
2019-06-08T00:21:37.026Z,23.22
2019-06-08T00:24:05.406Z,22.95
2019-06-08T00:26:32.981Z,24.37
2019-06-08T00:29:00.985Z,20.55
2019-06-08T00:31:28.243Z,24.07
2019-06-08T00:33:55.456Z,22.42
2019-06-08T00:36:23.085Z,21.73
2019-06-08T00:38:50.415Z,23.67
2019-06-08T00:41:20.234Z,20.80
2019-06-08T00:43:47.016Z,24.60
2019-06-08T00:46:15.760Z,27.77
2019-06-08T00:48:43.021Z,26.25
2019-06-08T00:51:10.615Z,25.05
2019-06-08T00:53:37.898Z,22.58
2019-06-08T00:56:05.137Z,28.60
2019-06-08T00:58:32.481Z,27.80
2019-06-08T01:01:00.034Z,24.12
2019-06-08T01:03:27.519Z,24.90
2019-06-08T01:05:54.827Z,24.27
2019-06-08T01:08:22.723Z,29.55
2019-06-08T01:10:51.144Z,27.65
2019-06-08T01:13:18.861Z,29.42
2019-06-08T01:15:46.274Z,30.80
2019-06-08T01:18:15.104Z,23.47
2019-06-08T01:20:42.411Z,29.40
2019-06-08T01:23:09.660Z,29.67
2019-06-08T01:25:36.877Z,22.55
2019-06-08T01:28:04.195Z,29.85
2019-06-08T01:30:32.231Z,26.52
2019-06-08T01:32:59.511Z,23.57
2019-06-08T01:35:26.985Z,28.62
2019-06-08T01:37:54.228Z,25.55
2019-06-08T01:40:21.472Z,25.45
2019-06-08T01:42:48.846Z,28.70
2019-06-08T01:45:32.963Z,26.80
2019-06-08T01:48:01.130Z,30.27
2019-06-08T01:50:28.481Z,30.00
2019-06-08T01:52:55.724Z,26.07
2019-06-08T01:55:25.060Z,27.58
2019-06-08T01:57:52.469Z,28.55
2019-06-08T02:00:29.665Z,31.02
2019-06-08T02:02:48.949Z,30.97
2019-06-08T02:05:16.246Z,28.10
2019-06-08T02:07:43.501Z,32.03
2019-06-08T02:10:10.814Z,30.08
2019-06-08T02:12:38.086Z,29.95
2019-06-08T02:15:05.399Z,28.85
2019-06-08T02:17:33.485Z,26.25
2019-06-08T02:20:00.740Z,30.05
2019-06-08T02:22:28.838Z,26.82
2019-06-08T02:24:56.212Z,26.55
2019-06-08T02:27:23.833Z,30.27
2019-06-08T02:29:51.109Z,32.38
2019-06-08T02:32:18.797Z,30.02
2019-06-08T02:34:46.050Z,31.12
2019-06-08T02:37:13.360Z,29.50
2019-06-08T02:39:40.642Z,27.52
2019-06-08T02:42:07.887Z,26.87
2019-06-08T02:44:36.373Z,33.98
2019-06-08T02:47:04.268Z,31.57
2019-06-08T02:49:33.237Z,32.08
2019-06-08T02:52:00.768Z,31.68
2019-06-08T02:54:29.972Z,30.15
2019-06-08T02:56:57.137Z,29.65
2019-06-08T02:59:25.994Z,34.38
2019-06-08T03:01:53.303Z,34.33
2019-06-08T03:04:21.278Z,33.95
2019-06-08T03:06:48.509Z,29.85
2019-06-08T03:09:15.955Z,30.52
2019-06-08T03:11:43.233Z,32.17
2019-06-08T03:14:10.464Z,33.02
2019-06-08T03:16:40.418Z,33.67
2019-06-08T03:19:21.041Z,31.42
2019-06-08T03:21:36.803Z,32.55
2019-06-08T03:24:05.182Z,27.58
2019-06-08T03:26:34.124Z,31.57
2019-06-08T03:29:02.487Z,29.80
2019-06-08T03:31:29.786Z,32.40
2019-06-08T03:33:57.415Z,27.95
2019-06-08T03:36:24.656Z,30.17
2019-06-08T03:38:52.944Z,29.77
2019-06-08T03:41:20.304Z,26.37
2019-06-08T03:43:47.541Z,32.85
2019-06-08T03:46:14.842Z,27.40
2019-06-08T03:48:43.946Z,28.47
2019-06-08T03:51:11.150Z,36.53
2019-06-08T03:53:40.042Z,27.37
2019-06-08T03:56:07.490Z,28.85
2019-06-08T03:58:36.585Z,30.85
2019-06-08T04:01:03.952Z,30.27
2019-06-08T04:03:31.160Z,30.62
2019-06-08T04:05:58.389Z,30.25
2019-06-08T04:08:25.662Z,29.75
2019-06-08T04:10:52.930Z,29.57
2019-06-08T04:13:20.198Z,31.57
2019-06-08T04:15:47.538Z,28.23
2019-06-08T04:18:14.768Z,30.00
2019-06-08T04:20:45.034Z,26.25
2019-06-08T04:23:11.214Z,35.20
2019-06-08T04:25:38.890Z,26.87
2019-06-08T04:28:07.467Z,27.35
2019-06-08T04:30:34.768Z,25.95
2019-06-08T04:33:02.055Z,26.20
2019-06-08T04:35:30.059Z,29.85
2019-06-08T04:37:57.584Z,28.07
2019-06-08T04:40:24.774Z,27.77
2019-06-08T04:42:52.387Z,30.45
2019-06-08T04:45:19.756Z,31.45
2019-06-08T04:47:48.210Z,26.12
2019-06-08T04:50:22.624Z,25.75
2019-06-08T04:52:47.162Z,26.73
2019-06-08T04:55:14.343Z,26.97
2019-06-08T04:57:43.304Z,26.77
2019-06-08T05:00:12.988Z,28.30
2019-06-08T05:02:42.251Z,28.77
2019-06-08T05:05:11.104Z,24.47
2019-06-08T05:07:39.180Z,27.40
2019-06-08T05:10:06.938Z,25.35
2019-06-08T05:12:34.388Z,24.27
2019-06-08T05:15:02.345Z,26.05
2019-06-08T05:17:30.742Z,31.02
2019-06-08T05:19:58.006Z,28.50
2019-06-08T05:22:25.309Z,28.05
2019-06-08T05:24:52.551Z,27.67
2019-06-08T05:27:20.510Z,31.15
2019-06-08T05:29:47.806Z,25.10
2019-06-08T05:32:15.029Z,28.83
2019-06-08T05:34:43.363Z,24.77
2019-06-08T05:37:11.248Z,29.70
2019-06-08T05:39:39.532Z,26.35
2019-06-08T05:42:07.229Z,32.73
2019-06-08T05:44:34.623Z,28.67
2019-06-08T05:47:01.859Z,25.62
2019-06-08T05:49:29.166Z,26.68
2019-06-08T05:51:56.564Z,27.90
2019-06-08T05:54:23.808Z,29.45
2019-06-08T05:56:51.106Z,28.52
2019-06-08T05:59:18.406Z,30.85
2019-06-08T06:01:46.713Z,26.20
2019-06-08T06:04:14.482Z,26.23
2019-06-08T06:06:42.424Z,27.10
2019-06-08T06:09:10.047Z,26.90
2019-06-08T06:11:37.846Z,25.43
2019-06-08T06:14:05.158Z,29.23
2019-06-08T06:16:32.396Z,27.25
2019-06-08T06:18:59.623Z,27.32
2019-06-08T06:21:27.050Z,32.20
2019-06-08T06:23:54.272Z,27.02
2019-06-08T06:26:21.502Z,26.93
2019-06-08T06:28:49.663Z,27.85
2019-06-08T06:31:17.146Z,25.70
2019-06-08T06:33:45.900Z,24.25
2019-06-08T06:36:13.343Z,22.62
2019-06-08T06:38:41.925Z,22.22
2019-06-08T06:41:09.418Z,24.18
2019-06-08T06:43:36.706Z,22.73
2019-06-08T06:46:03.985Z,21.35
2019-06-08T06:48:34.041Z,28.95
2019-06-08T06:51:01.307Z,24.27
2019-06-08T06:53:28.620Z,23.67
2019-06-08T06:55:55.937Z,23.65
2019-06-08T06:58:23.234Z,20.77
2019-06-08T07:00:51.522Z,22.77
2019-06-08T07:03:18.811Z,23.35
2019-06-08T07:05:46.104Z,22.50
2019-06-08T07:08:13.344Z,26.82
2019-06-08T07:10:40.671Z,23.67
2019-06-08T07:13:07.935Z,23.67
2019-06-08T07:15:41.631Z,18.82
2019-06-08T07:18:04.195Z,21.07
2019-06-08T07:20:31.466Z,18.17
2019-06-08T07:22:58.997Z,22.32
2019-06-08T07:25:26.993Z,20.97
2019-06-08T07:27:55.132Z,23.10
2019-06-08T07:30:22.587Z,29.25
2019-06-08T07:32:50.902Z,19.95
2019-06-08T07:35:18.515Z,17.95
2019-06-08T07:37:47.283Z,24.43
2019-06-08T07:40:15.961Z,20.15
2019-06-08T07:42:43.240Z,22.67
2019-06-08T07:45:10.471Z,22.42
2019-06-08T07:47:38.161Z,19.02
2019-06-08T07:50:06.924Z,23.22
2019-06-08T07:52:34.161Z,19.10
2019-06-08T07:55:01.383Z,20.23
2019-06-08T07:57:29.263Z,17.90
2019-06-08T07:59:56.588Z,27.85
2019-06-08T08:02:23.862Z,16.95
2019-06-08T08:04:52.430Z,16.25
2019-06-08T08:07:20.234Z,12.80
2019-06-08T08:09:48.645Z,18.17
2019-06-08T08:12:15.991Z,16.55
2019-06-08T08:14:43.277Z,18.50
2019-06-08T08:17:10.492Z,18.60
2019-06-08T08:19:37.792Z,21.60
2019-06-08T08:22:19.647Z,14.83
2019-06-08T08:24:34.055Z,14.90
2019-06-08T08:27:03.609Z,17.35
2019-06-08T08:29:31.384Z,20.17
2019-06-08T08:32:01.511Z,18.95
2019-06-08T08:34:28.394Z,16.60
2019-06-08T08:37:01.371Z,21.17
2019-06-08T08:39:27.577Z,24.30
2019-06-08T08:41:57.253Z,26.87
2019-06-08T08:44:24.394Z,17.50
2019-06-08T08:46:53.563Z,20.97
2019-06-08T08:49:20.791Z,20.30
2019-06-08T08:51:48.101Z,16.15
2019-06-08T08:54:15.333Z,17.50
2019-06-08T08:56:42.669Z,17.42
2019-06-08T08:59:10.696Z,17.30
2019-06-08T09:01:38.418Z,16.02
2019-06-08T09:04:08.599Z,20.80
2019-06-08T09:06:34.787Z,15.65
2019-06-08T09:09:03.584Z,16.75
2019-06-08T09:11:31.954Z,15.20
2019-06-08T09:14:05.125Z,17.55
2019-06-08T09:16:28.756Z,14.55
2019-06-08T09:18:59.327Z,14.65
2019-06-08T09:21:27.933Z,18.10
2019-06-08T09:23:55.754Z,15.20
2019-06-08T09:26:23.429Z,15.08
2019-06-08T09:28:51.691Z,14.18
2019-06-08T09:31:19.792Z,15.43
2019-06-08T09:33:53.325Z,17.57
2019-06-08T09:36:17.772Z,15.13
2019-06-08T09:38:47.771Z,15.83
2019-06-08T09:41:14.437Z,14.23
2019-06-08T09:43:41.827Z,13.30
2019-06-08T09:46:09.462Z,12.15
2019-06-08T09:48:38.208Z,11.48
2019-06-08T09:51:09.013Z,12.63
2019-06-08T09:53:40.535Z,12.75
2019-06-08T09:56:06.458Z,13.45
2019-06-08T09:58:33.057Z,16.65
2019-06-08T10:01:04.230Z,12.15
2019-06-08T10:03:31.090Z,12.45
2019-06-08T10:05:59.392Z,14.95
2019-06-08T10:08:28.319Z,12.90
2019-06-08T10:10:59.205Z,17.45
2019-06-08T10:13:28.003Z,12.28
2019-06-08T10:15:56.274Z,12.82
2019-06-08T10:18:24.598Z,11.57
2019-06-08T10:20:54.705Z,14.45
2019-06-08T10:23:42.381Z,11.15
2019-06-08T10:26:09.615Z,18.17
2019-06-08T10:28:38.886Z,17.23
2019-06-08T10:31:06.938Z,12.07
2019-06-08T10:33:34.266Z,12.82
2019-06-08T10:36:02.337Z,15.83
2019-06-08T10:38:30.661Z,12.50
2019-06-08T10:41:10.134Z,11.05
2019-06-08T10:43:31.135Z,13.70
2019-06-08T10:46:03.074Z,14.68
2019-06-08T10:48:28.670Z,11.35
2019-06-08T10:50:58.553Z,10.10
2019-06-08T10:53:28.446Z,12.90
2019-06-08T10:55:57.856Z,10.03
2019-06-08T10:58:24.729Z,12.05
2019-06-08T11:00:51.991Z,10.35
2019-06-08T11:03:19.245Z,10.58
2019-06-08T11:05:48.327Z,10.18
2019-06-08T11:08:16.800Z,13.00
2019-06-08T11:10:47.391Z,8.70
2019-06-08T11:13:15.219Z,12.50
2019-06-08T11:15:42.790Z,13.95
2019-06-08T11:18:13.586Z,11.73
2019-06-08T11:20:41.052Z,10.67
2019-06-08T11:23:12.270Z,12.45
2019-06-08T11:25:37.657Z,14.35
2019-06-08T11:28:14.652Z,8.78
2019-06-08T11:30:38.533Z,14.93
2019-06-08T11:33:08.530Z,12.53
2019-06-08T11:35:34.865Z,9.30
2019-06-08T11:38:02.264Z,11.20
2019-06-08T11:40:30.442Z,14.13
2019-06-08T11:43:00.513Z,14.43
2019-06-08T11:45:37.836Z,11.45
2019-06-08T11:48:08.756Z,8.85
2019-06-08T11:50:42.194Z,8.83
2019-06-08T11:53:14.847Z,10.18
2019-06-08T11:55:42.510Z,11.90
2019-06-08T11:58:13.846Z,10.50
2019-06-08T12:03:11.502Z,12.63
2019-06-08T12:05:42.834Z,11.80
2019-06-08T12:08:12.785Z,14.20
2019-06-08T12:10:48.956Z,11.33
2019-06-08T12:13:20.776Z,14.28
2019-06-08T12:15:50.029Z,17.15
2019-06-08T12:18:20.122Z,18.98
2019-06-08T12:20:52.906Z,26.55
2019-06-08T12:23:23.533Z,16.57
2019-06-08T12:25:56.135Z,17.82
2019-06-08T12:28:28.056Z,15.45
2019-06-08T12:31:02.233Z,14.20
2019-06-08T12:33:38.958Z,14.35
2019-06-08T12:36:13.608Z,15.80
2019-06-08T12:38:43.822Z,18.02
2019-06-08T12:41:14.131Z,13.85
2019-06-08T12:43:43.631Z,15.18
2019-06-08T12:46:16.305Z,20.55
2019-06-08T12:48:43.361Z,19.00
2019-06-08T12:51:15.186Z,15.15
2019-06-08T12:53:43.737Z,12.98
2019-06-08T12:56:12.084Z,13.58
2019-06-08T12:58:40.129Z,14.73
2019-06-08T13:01:08.188Z,13.08
2019-06-08T13:03:37.683Z,11.25
2019-06-08T13:06:07.881Z,16.20
2019-06-08T13:08:34.861Z,9.20
2019-06-08T13:11:02.075Z,9.08
2019-06-08T13:13:29.446Z,7.35
2019-06-08T13:15:58.054Z,14.78
2019-06-08T13:18:25.393Z,9.75
2019-06-08T13:20:52.673Z,7.50
2019-06-08T13:23:21.277Z,5.53
2019-06-08T13:25:48.657Z,9.23
2019-06-08T13:47:38.311Z,6.10
2019-06-08T13:50:08.270Z,14.20
2019-06-08T13:52:38.168Z,8.05
2019-06-08T13:55:05.599Z,6.70
2019-06-08T13:57:32.865Z,6.45
2019-06-08T14:00:00.188Z,6.75
2019-06-08T14:02:30.925Z,7.15
2019-06-08T14:04:58.956Z,6.70
2019-06-08T14:07:31.783Z,6.60
2019-06-08T14:09:58.266Z,8.95
2019-06-08T14:12:28.216Z,10.25
2019-06-08T14:14:54.562Z,7.78
2019-06-08T14:17:24.160Z,9.43
2019-06-08T14:19:51.644Z,9.33
2019-06-08T14:22:22.653Z,10.60
2019-06-08T14:24:48.136Z,11.05
2019-06-08T14:27:15.346Z,10.90
2019-06-08T14:29:42.652Z,9.88
2019-06-08T14:32:10.904Z,8.85
2019-06-08T14:34:38.810Z,8.95
2019-06-08T14:37:08.477Z,11.22
2019-06-08T14:39:35.728Z,10.63
2019-06-08T14:42:02.962Z,10.80
2019-06-08T14:44:32.102Z,9.23
2019-06-08T14:47:02.264Z,10.80
2019-06-08T14:49:34.307Z,13.25
2019-06-08T14:51:58.993Z,10.98
2019-06-08T14:54:29.032Z,11.65
2019-06-08T14:56:57.552Z,9.83
2019-06-08T14:59:25.497Z,10.08
2019-06-08T15:01:52.835Z,11.57
2019-06-08T15:04:24.951Z,13.30
2019-06-08T15:06:49.462Z,11.38
2019-06-08T15:09:17.819Z,13.58
2019-06-08T15:11:45.150Z,10.75
2019-06-08T15:14:12.440Z,11.97
2019-06-08T15:16:41.802Z,11.30
2019-06-08T15:19:08.690Z,10.93
2019-06-08T15:21:38.005Z,11.65
2019-06-08T15:24:05.336Z,14.78
2019-06-08T15:26:39.607Z,12.98
2019-06-08T15:29:01.896Z,10.25
2019-06-08T15:31:31.093Z,10.95
2019-06-08T15:33:59.908Z,10.48
2019-06-08T15:36:29.520Z,10.18
2019-06-08T15:38:56.787Z,10.72
2019-06-08T15:41:24.584Z,10.90
2019-06-08T15:43:52.674Z,10.63
2019-06-08T15:46:19.936Z,14.40
2019-06-08T15:48:48.570Z,12.73
2019-06-08T15:51:16.071Z,10.25
2019-06-08T15:53:44.886Z,21.95
2019-06-08T15:56:14.372Z,17.50
2019-06-08T15:58:41.829Z,12.30
2019-06-08T16:01:09.047Z,14.00
2019-06-08T16:03:38.093Z,12.53
2019-06-08T16:06:05.389Z,11.05
2019-06-08T16:08:36.548Z,12.35
2019-06-08T16:11:01.797Z,13.25
2019-06-08T16:15:54.371Z,47.40
2019-06-08T16:18:22.822Z,15.10
2019-06-08T16:20:52.137Z,13.65
2019-06-08T16:23:23.089Z,12.58
2019-06-08T16:26:01.493Z,19.48
2019-06-08T16:28:30.423Z,15.25
2019-06-08T16:30:57.979Z,21.52
2019-06-08T16:33:27.246Z,15.35
2019-06-08T16:35:55.559Z,15.80
2019-06-08T16:38:38.355Z,14.45
2019-06-08T16:41:17.156Z,19.25
2019-06-08T16:43:46.799Z,19.82
2019-06-08T16:46:14.456Z,15.68
2019-06-08T16:48:44.231Z,21.93
2019-06-08T16:51:29.290Z,26.95
2019-06-08T16:54:32.848Z,23.57
2019-06-08T16:57:10.534Z,25.72
2019-06-08T16:59:38.635Z,23.57
2019-06-08T17:02:06.785Z,25.88
2019-06-08T17:04:35.025Z,20.70
2019-06-08T17:07:02.466Z,19.57
2019-06-08T17:09:32.603Z,16.97
2019-06-08T17:12:00.763Z,20.17
2019-06-08T17:14:29.870Z,16.90
2019-06-08T17:16:57.218Z,19.48
2019-06-08T17:19:24.441Z,16.57
2019-06-08T17:21:51.709Z,19.30
2019-06-08T17:24:18.957Z,20.70
2019-06-08T17:26:46.187Z,18.67
2019-06-08T17:29:13.494Z,19.02
2019-06-08T17:31:41.377Z,20.32
2019-06-08T17:34:08.815Z,22.75
2019-06-08T17:36:36.558Z,23.30
2019-06-08T17:39:05.058Z,24.18
2019-06-08T17:41:32.394Z,26.02
2019-06-08T17:43:59.703Z,24.60
2019-06-08T17:46:29.473Z,26.35
2019-06-08T17:49:01.436Z,27.77
2019-06-08T17:51:29.013Z,28.15
2019-06-08T17:53:56.312Z,25.97
2019-06-08T17:56:24.090Z,27.95
2019-06-08T17:58:51.329Z,30.10
2019-06-08T18:01:18.931Z,33.50
2019-06-08T18:03:48.284Z,28.87
2019-06-08T18:06:17.831Z,29.18
2019-06-08T18:08:45.640Z,27.87
2019-06-08T18:11:13.879Z,23.75
2019-06-08T18:13:44.004Z,23.92
2019-06-08T18:16:11.156Z,21.68
2019-06-08T18:18:40.751Z,21.40
2019-06-08T18:21:08.130Z,18.87
2019-06-08T18:23:39.170Z,19.15
2019-06-08T18:26:04.931Z,23.30
2019-06-08T18:28:32.187Z,23.45
2019-06-08T18:30:59.475Z,27.65
2019-06-08T18:33:27.067Z,27.90
2019-06-08T18:35:54.278Z,27.55
2019-06-08T18:38:21.554Z,25.57
2019-06-08T18:40:48.893Z,27.77
2019-06-08T18:43:17.067Z,27.00
2019-06-08T18:45:46.312Z,32.30
2019-06-08T18:48:14.247Z,27.93
2019-06-08T18:50:42.188Z,32.67
2019-06-08T18:53:10.518Z,29.72
2019-06-08T18:55:40.505Z,31.48
2019-06-08T18:58:18.985Z,31.70
2019-06-08T19:00:39.972Z,32.88
2019-06-08T19:03:07.172Z,28.20
2019-06-08T19:05:34.686Z,25.65
2019-06-08T19:08:02.933Z,29.92
2019-06-08T19:10:31.594Z,25.48
2019-06-08T19:12:58.828Z,27.30
2019-06-08T19:15:32.809Z,28.12
2019-06-08T19:18:00.055Z,29.40
2019-06-08T19:20:28.463Z,29.55
2019-06-08T19:22:57.882Z,30.23
2019-06-08T19:25:27.529Z,29.65
2019-06-08T19:27:54.415Z,32.42
2019-06-08T19:30:24.616Z,33.42
2019-06-08T19:32:52.468Z,29.92
2019-06-08T19:35:19.798Z,29.35
2019-06-08T19:37:53.265Z,30.25
2019-06-08T19:40:17.648Z,31.80
2019-06-08T19:42:53.535Z,29.15
2019-06-08T19:45:14.206Z,28.57
2019-06-08T19:47:42.490Z,26.17
2019-06-08T19:50:09.873Z,26.37
2019-06-08T19:52:41.035Z,26.80
2019-06-08T19:55:09.399Z,32.42
2019-06-08T19:57:36.735Z,30.12
2019-06-08T20:00:07.294Z,27.27
2019-06-08T20:02:34.444Z,30.37
2019-06-08T20:05:07.704Z,28.75
2019-06-08T20:07:37.877Z,27.27
2019-06-08T20:10:08.631Z,26.52
2019-06-08T20:15:08.517Z,25.45
2019-06-08T20:17:37.298Z,24.65
2019-06-08T20:20:07.744Z,21.52
2019-06-08T20:22:39.191Z,25.35
2019-06-08T20:25:10.574Z,17.90
2019-06-08T20:27:38.345Z,18.70
2019-06-08T20:30:09.612Z,20.60
2019-06-08T20:32:35.632Z,15.10
2019-06-08T20:35:08.040Z,21.57
2019-06-08T20:37:37.663Z,20.30
2019-06-08T20:40:12.099Z,18.65
2019-06-08T20:42:34.310Z,21.37
2019-06-08T20:45:01.759Z,18.35
2019-06-08T20:47:31.433Z,19.07
2019-06-08T20:49:58.824Z,19.82
2019-06-08T20:52:28.069Z,16.07
2019-06-08T20:54:55.368Z,19.50
2019-06-08T20:57:22.698Z,17.05
2019-06-08T20:59:54.014Z,15.53
2019-06-08T21:02:23.321Z,17.95
2019-06-08T21:04:54.224Z,16.57
2019-06-08T21:07:20.663Z,15.93
2019-06-08T21:09:50.649Z,19.65
2019-06-08T21:12:17.798Z,14.87
2019-06-08T21:14:48.937Z,18.80
2019-06-08T21:17:17.907Z,16.85
2019-06-08T21:19:44.758Z,17.32
2019-06-08T21:22:12.122Z,19.67
2019-06-08T21:24:39.535Z,20.17
2019-06-08T21:27:08.229Z,22.32
2019-06-08T21:29:47.642Z,23.07
2019-06-08T21:32:05.031Z,20.85
2019-06-08T21:34:32.421Z,19.23
2019-06-08T21:37:01.871Z,17.32
2019-06-08T21:39:31.140Z,19.90
2019-06-08T21:42:03.480Z,17.00
2019-06-08T21:44:32.783Z,22.05
2019-06-08T21:47:02.381Z,22.05
2019-06-08T21:49:29.595Z,18.05
2019-06-08T21:52:01.443Z,18.98
2019-06-08T21:54:29.539Z,18.50
2019-06-08T21:56:59.281Z,23.95
2019-06-08T21:59:27.627Z,16.87
2019-06-08T22:01:59.004Z,16.35
2019-06-08T22:04:27.670Z,19.15
2019-06-08T22:07:01.349Z,17.82
2019-06-08T22:09:28.796Z,18.45
2019-06-08T22:11:58.731Z,20.92
2019-06-08T22:14:27.347Z,23.50
2019-06-08T22:16:59.625Z,18.95
2019-06-08T22:19:23.768Z,16.48
2019-06-08T22:21:52.218Z,16.07
2019-06-08T22:24:24.128Z,17.62
2019-06-08T22:26:52.666Z,16.47
2019-06-08T22:29:22.967Z,15.60
2019-06-08T22:31:52.164Z,16.12
2019-06-08T22:34:19.901Z,20.45
2019-06-08T22:36:53.073Z,15.32
2019-06-08T22:39:21.638Z,18.87
2019-06-08T22:41:53.415Z,15.75
2019-06-08T22:47:44.091Z,12.35
2019-06-08T22:50:15.343Z,12.85
2019-06-08T22:52:47.648Z,12.60
2019-06-08T22:55:15.142Z,13.15
2019-06-08T22:57:47.914Z,10.60
2019-06-08T23:00:22.749Z,12.47
2019-06-08T23:02:49.735Z,11.73
2019-06-08T23:05:19.395Z,12.50
2019-06-08T23:07:52.387Z,9.98
2019-06-08T23:10:20.400Z,8.35
2019-06-08T23:12:47.966Z,11.05
2019-06-08T23:15:18.560Z,9.45
2019-06-08T23:17:50.537Z,8.35
2019-06-08T23:20:27.600Z,9.25
2019-06-08T23:23:08.791Z,12.33
2019-06-08T23:25:37.288Z,10.88
2019-06-08T23:28:09.901Z,12.95
2019-06-08T23:30:39.012Z,15.70
2019-06-08T23:33:11.524Z,9.88
2019-06-08T23:36:32.363Z,12.68
2019-06-08T23:38:24.592Z,8.83
2019-06-08T23:40:59.712Z,15.43
2019-06-08T23:43:29.249Z,9.50
2019-06-08T23:45:58.344Z,12.05
2019-06-08T23:48:28.908Z,13.65
2019-06-08T23:51:04.346Z,12.25
2019-06-08T23:53:31.491Z,14.38
2019-06-08T23:56:02.793Z,14.55
2019-06-08T23:58:32.693Z,10.95
